.
WxDataArchive / Data Records for 2013-03-27
2013-03-26 March 2013 2013-03-28

Data Records for Wednesday, 27 March 2013

Time	Temp	Chill	HIndex	Humid	Dewpt	 Wind 	HiWind	WindDir	Rain 	Barom 
-----	----	-----	------	-----	-----	------	------	-------	-----	----- 
00:00	34.1	34.1	34.1	78	28.0	1	3	248	0.00	30.190 
00:05	34.1	34.1	34.1	78	28.0	1	3	248	0.00	30.190 
00:10	34.1	34.1	34.1	78	28.0	1	4	248	0.00	30.190 
00:15	34.1	34.1	34.1	78	28.0	1	4	338	0.00	30.188 
00:20	34.1	34.1	34.1	77	27.7	1	5	315	0.00	30.188 
00:25	34.1	34.1	34.1	77	27.7	1	4	248	0.00	30.188 
00:30	34.1	34.1	34.1	77	27.7	1	3	248	0.00	30.190 
00:35	34.1	34.1	34.1	77	27.7	1	3	248	0.00	30.190 
00:40	34.0	34.0	34.0	77	27.6	1	5	248	0.00	30.190 
00:45	34.0	34.0	34.0	77	27.6	1	3	248	0.00	30.187 
00:50	34.0	34.0	34.0	77	27.6	1	3	315	0.00	30.187 
00:55	33.8	33.8	33.8	77	27.4	1	3	292	0.00	30.187 
01:00	33.8	33.8	33.8	77	27.4	1	2	292	0.00	30.191 
01:05	33.8	33.8	33.8	77	27.4	1	4	315	0.00	30.191 
01:10	33.8	33.8	33.8	78	27.7	1	4	292	0.00	30.191 
01:15	33.8	33.8	33.8	77	27.4	1	3	270	0.00	30.193 
01:20	33.8	33.8	33.8	78	27.7	1	2	270	0.00	30.193 
01:25	33.8	33.8	33.8	78	27.7	2	3	270	0.00	30.193 
01:30	33.8	33.8	33.8	78	27.7	1	3	270	0.00	30.190 
01:35	33.8	33.8	33.8	78	27.7	1	2	270	0.00	30.190 
01:40	33.7	33.7	33.7	78	27.6	1	4	270	0.00	30.190 
01:45	33.7	33.7	33.7	78	27.6	1	4	270	0.00	30.190 
01:50	33.7	33.7	33.7	79	27.9	1	3	292	0.00	30.190 
01:55	33.7	33.7	33.7	79	27.9	2	4	248	0.00	30.190 
02:00	33.5	33.5	33.5	79	27.7	1	5	248	0.00	30.191 
02:05	33.5	33.5	33.5	79	27.7	1	3	270	0.00	30.191 
02:10	33.5	33.5	33.5	79	27.7	1	3	270	0.00	30.191 
02:15	33.4	33.4	33.4	80	27.9	1	4	292	0.00	30.196 
02:20	33.4	33.4	33.4	80	27.9	1	3	248	0.00	30.196 
02:25	33.4	33.4	33.4	80	27.9	1	3	248	0.00	30.196 
02:30	33.4	33.4	33.4	80	27.9	1	2	315	0.00	30.199 
02:35	33.4	33.4	33.4	81	28.2	1	3	270	0.00	30.199 
02:40	33.2	33.2	33.2	81	28.0	1	3	338	0.00	30.199 
02:45	33.2	33.2	33.2	81	28.0	1	3	338	0.00	30.196 
02:50	33.2	33.2	33.2	81	28.0	1	4	270	0.00	30.196 
02:55	33.2	33.2	33.2	81	28.0	1	2	248	0.00	30.196 
03:00	33.2	33.2	33.2	81	28.0	1	4	248	0.00	30.193 
03:05	33.2	33.2	33.2	81	28.0	1	2	248	0.00	30.193 
03:10	33.2	33.2	33.2	81	28.0	1	2	248	0.00	30.193 
03:15	33.1	33.1	33.1	81	27.9	1	4	248	0.00	30.197 
03:20	33.1	33.1	33.1	81	27.9	0	3	248	0.00	30.197 
03:25	32.9	32.9	32.9	81	27.7	1	2	248	0.00	30.197 
03:30	32.9	32.9	32.9	81	27.7	1	2	248	0.00	30.196 
03:35	32.8	32.8	32.8	81	27.6	1	3	248	0.00	30.196 
03:40	32.8	32.8	32.8	82	27.9	1	2	248	0.00	30.196 
03:45	32.8	32.8	32.8	82	27.9	1	3	248	0.00	30.195 
03:50	32.8	32.8	32.8	82	27.9	1	2	248	0.00	30.195 
03:55	32.7	32.7	32.7	82	27.8	0	2	248	0.00	30.195 
04:00	32.7	32.7	32.7	82	27.8	1	2	248	0.00	30.196 
04:05	32.7	32.7	32.7	82	27.8	1	2	248	0.00	30.196 
04:10	32.7	32.7	32.7	82	27.8	1	2	248	0.00	30.196 
04:15	32.7	32.7	32.7	83	28.1	0	1	248	0.00	30.195 
04:20	32.5	32.5	32.5	83	27.9	1	2	248	0.00	30.195 
04:25	32.5	32.5	32.5	83	27.9	1	2	248	0.00	30.195 
04:30	32.5	32.5	32.5	83	27.9	1	2	248	0.00	30.199 
04:35	32.4	32.4	32.4	83	27.8	1	2	248	0.00	30.199 
04:40	32.4	32.4	32.4	83	27.8	1	2	248	0.00	30.199 
04:45	32.2	32.2	32.2	84	27.9	0	2	248	0.00	30.200 
04:50	32.2	32.2	32.2	84	27.9	1	3	248	0.00	30.200 
04:55	32.2	32.2	32.2	84	27.9	1	4	248	0.00	30.200 
05:00	32.2	32.2	32.2	84	27.9	1	2	248	0.00	30.202 
05:05	32.2	32.2	32.2	84	27.9	0	2	248	0.00	30.202 
05:10	32.1	32.1	32.1	84	27.8	1	3	315	0.00	30.202 
05:15	32.1	32.1	32.1	84	27.8	1	2	315	0.00	30.206 
05:20	32.1	32.1	32.1	85	28.1	1	2	292	0.00	30.206 
05:25	32.2	32.2	32.2	85	28.2	1	3	292	0.00	30.206 
05:30	32.2	32.2	32.2	85	28.2	1	3	248	0.00	30.208 
05:35	32.2	32.2	32.2	85	28.2	1	2	248	0.00	30.208 
05:40	32.4	32.4	32.4	85	28.4	1	4	270	0.00	30.208 
05:45	32.4	32.4	32.4	85	28.4	1	4	270	0.00	30.210 
05:50	32.5	32.5	32.5	85	28.5	1	3	315	0.00	30.210 
05:55	32.5	32.5	32.5	84	28.2	1	3	292	0.00	30.210 
06:00	32.5	32.5	32.5	84	28.2	1	3	270	0.00	30.211 
06:05	32.5	32.5	32.5	84	28.2	1	4	270	0.00	30.211 
06:10	32.5	32.5	32.5	84	28.2	1	3	270	0.00	30.211 
06:15	32.5	32.5	32.5	84	28.2	1	3	270	0.00	30.218 
06:20	32.7	32.7	32.7	84	28.4	1	3	270	0.00	30.218 
06:25	32.7	32.7	32.7	84	28.4	1	2	270	0.00	30.218 
06:30	32.7	32.7	32.7	84	28.4	1	3	270	0.00	30.221 
06:35	32.7	32.7	32.7	84	28.4	0	2	248	0.00	30.221 
06:40	32.7	32.7	32.7	84	28.4	1	2	248	0.00	30.221 
06:45	32.7	32.7	32.7	84	28.4	1	3	248	0.00	30.222 
06:50	32.5	32.5	32.5	84	28.2	0	2	248	0.00	30.222 
06:55	32.5	32.5	32.5	85	28.5	0	3	248	0.00	30.222 
07:00	32.5	32.5	32.5	85	28.5	0	2	248	0.00	30.225 
07:05	32.5	32.5	32.5	85	28.5	0	2	248	0.00	30.225 
07:10	32.7	32.7	32.7	85	28.7	0	2	248	0.00	30.225 
07:15	32.7	32.7	32.7	85	28.7	1	2	248	0.00	30.227 
07:20	32.7	32.7	32.7	85	28.7	0	2	248	0.00	30.227 
07:25	32.7	32.7	32.7	85	28.7	0	2	248	0.00	30.227 
07:30	32.7	32.7	32.7	85	28.7	0	1	248	0.00	30.232 
07:35	32.7	32.7	32.7	84	28.4	0	1	248	0.00	30.232 
07:40	32.7	32.7	32.7	84	28.4	0	1	248	0.00	30.232 
07:45	32.7	32.7	32.7	84	28.4	0	1	248	0.00	30.234 
07:50	32.7	32.7	32.7	84	28.4	0	2	248	0.00	30.234 
07:55	32.8	32.8	32.8	84	28.5	0	2	248	0.00	30.234 
08:00	32.8	32.8	32.8	84	28.5	0	2	248	0.00	30.238 
08:05	32.8	32.8	32.8	84	28.5	0	1	248	0.00	30.238 
08:10	32.9	32.9	32.9	84	28.6	0	2	248	0.00	30.238 
08:15	32.9	32.9	32.9	84	28.6	0	1	248	0.00	30.240 
08:20	33.1	33.1	33.1	84	28.8	1	2	248	0.00	30.240 
08:25	33.1	33.1	33.1	83	28.5	0	1	248	0.00	30.240 
08:30	33.2	33.2	33.2	83	28.6	1	2	248	0.00	30.248 
08:35	33.4	33.4	33.4	83	28.8	1	2	248	0.00	30.248 
08:40	33.5	33.5	33.5	83	28.9	0	2	248	0.00	30.248 
08:45	34.0	34.0	34.0	82	29.1	1	2	248	0.00	30.252 
08:50	34.3	34.3	34.3	81	29.1	1	3	248	0.00	30.252 
08:55	34.6	34.6	34.6	81	29.4	1	2	248	0.00	30.252 
09:00	34.9	34.9	34.9	80	29.4	1	2	248	0.00	30.254 
09:05	35.2	35.2	35.2	79	29.4	1	3	338	0.00	30.254 
09:10	35.5	35.5	35.5	78	29.3	1	3	270	0.00	30.254 
09:15	35.6	35.6	35.6	78	29.4	1	2	270	0.00	30.256 
09:20	35.6	35.6	35.6	77	29.1	1	3	270	0.00	30.256 
09:25	35.8	35.8	35.8	77	29.3	1	3	270	0.00	30.256 
09:30	35.8	35.8	35.8	76	29.0	1	3	270	0.00	30.259 
09:35	35.9	35.9	35.9	76	29.1	1	3	315	0.00	30.259 
09:40	35.9	35.9	35.9	76	29.1	1	3	338	0.00	30.259 
09:45	36.0	36.0	36.0	76	29.2	1	4	315	0.00	30.262 
09:50	36.0	36.0	36.0	76	29.2	1	4	315	0.00	30.262 
09:55	36.5	36.5	36.5	76	29.7	1	3	248	0.00	30.262 
10:00	36.6	36.6	36.6	75	29.4	1	4	248	0.00	30.260 
10:05	36.9	36.9	36.9	75	29.7	1	3	338	0.00	30.260 
10:10	37.0	37.0	37.0	74	29.5	1	3	315	0.00	30.260 
10:15	37.2	37.2	37.2	73	29.4	1	3	315	0.00	30.265 
10:20	37.3	37.3	37.3	72	29.1	1	3	338	0.00	30.265 
10:25	37.5	37.5	37.5	71	29.0	1	3	248	0.00	30.265 
10:30	37.6	37.6	37.6	69	28.4	2	4	270	0.00	30.265 
10:35	37.8	37.8	37.8	69	28.6	1	3	338	0.00	30.265 
10:40	37.8	37.8	37.8	68	28.2	2	4	270	0.00	30.265 
10:45	38.0	38.0	38.0	67	28.0	2	5	338	0.00	30.267 
10:50	38.2	38.2	38.2	66	27.9	2	4	248	0.00	30.267 
10:55	38.6	38.6	38.6	64	27.5	2	3	248	0.00	30.267 
11:00	38.8	38.8	38.8	59	25.7	2	4	270	0.00	30.268 
11:05	38.9	38.9	38.9	58	25.4	2	4	248	0.00	30.268 
11:10	39.5	39.5	39.5	61	27.2	1	4	315	0.00	30.268 
11:15	39.8	39.8	39.8	58	26.2	2	6	338	0.00	30.266 
11:20	40.1	40.1	40.1	58	26.5	2	5	338	0.00	30.266 
11:25	40.3	40.3	40.3	58	26.7	3	5	270	0.00	30.266 
11:30	40.8	40.8	40.8	58	27.2	2	5	248	0.00	30.266 
11:35	40.9	40.9	40.9	58	27.3	2	5	270	0.00	30.266 
11:40	40.9	40.9	40.9	57	26.9	1	5	270	0.00	30.266 
11:45	41.1	41.1	41.1	57	27.0	2	5	270	0.00	30.268 
11:50	41.2	41.2	41.2	56	26.7	2	4	315	0.00	30.268 
11:55	41.1	41.1	41.1	57	27.0	1	3	292	0.00	30.268 
12:00	41.3	41.3	41.3	59	28.1	2	5	270	0.00	30.266 
12:05	41.6	41.6	41.6	58	27.9	2	4	248	0.00	30.266 
12:10	41.6	41.6	41.6	57	27.5	2	7	338	0.00	30.266 
12:15	41.3	41.3	41.3	58	27.7	2	4	270	0.00	30.266 
12:20	42.2	42.2	42.2	57	28.1	2	6	248	0.00	30.266 
12:25	42.1	42.1	42.1	55	27.1	2	6	338	0.00	30.266 
12:30	42.1	42.1	42.1	57	28.0	1	3	292	0.00	30.262 
12:35	41.5	41.5	41.5	56	27.0	2	4	248	0.00	30.262 
12:40	40.9	40.9	40.9	56	26.4	1	4	270	0.00	30.262 
12:45	40.6	40.6	40.6	55	25.7	2	5	248	0.00	30.265 
12:50	40.2	40.2	40.2	55	25.3	2	4	248	0.00	30.265 
12:55	40.1	40.1	40.1	57	26.1	2	5	315	0.00	30.265 
13:00	39.8	39.8	39.8	58	26.2	2	3	248	0.00	30.263 
13:05	39.8	39.8	39.8	58	26.2	1	3	315	0.00	30.263 
13:10	39.8	39.8	39.8	58	26.2	1	5	270	0.00	30.263 
13:15	39.8	39.8	39.8	58	26.2	2	5	338	0.00	30.265 
13:20	39.8	39.8	39.8	58	26.2	1	3	315	0.00	30.265 
13:25	39.8	39.8	39.8	57	25.8	2	5	315	0.00	30.265 
13:30	39.6	39.6	39.6	58	26.1	1	3	315	0.00	30.265 
13:35	39.6	39.6	39.6	58	26.1	2	5	248	0.00	30.265 
13:40	39.6	39.6	39.6	59	26.5	1	4	292	0.00	30.265 
13:45	39.6	39.6	39.6	57	25.6	2	5	315	0.00	30.265 
13:50	39.8	39.8	39.8	56	25.4	2	4	248	0.00	30.265 
13:55	39.8	39.8	39.8	56	25.4	2	5	315	0.00	30.265 
14:00	40.1	40.1	40.1	57	26.1	1	4	315	0.00	30.261 
14:05	40.5	40.5	40.5	57	26.5	2	5	0	0.00	30.261 
14:10	40.6	40.6	40.6	57	26.6	2	4	292	0.00	30.261 
14:15	40.5	40.5	40.5	54	25.2	3	6	292	0.00	30.260 
14:20	40.2	40.2	40.2	55	25.3	2	5	292	0.00	30.260 
14:25	40.2	40.2	40.2	55	25.3	2	6	270	0.00	30.260 
14:30	40.3	40.3	40.3	55	25.4	2	6	270	0.00	30.260 
14:35	40.8	40.8	40.8	56	26.3	1	3	315	0.00	30.260 
14:40	40.9	40.9	40.9	55	26.0	2	6	315	0.00	30.260 
14:45	40.9	40.9	40.9	57	26.9	1	7	338	0.00	30.255 
14:50	40.8	40.8	40.8	56	26.3	2	6	270	0.00	30.255 
14:55	40.6	40.6	40.6	56	26.1	2	5	315	0.00	30.255 
15:00	40.5	40.5	40.5	54	25.2	3	7	270	0.00	30.256 
15:05	40.6	40.6	40.6	57	26.6	1	6	270	0.00	30.256 
15:10	40.8	40.8	40.8	56	26.3	2	4	292	0.00	30.256 
15:15	40.8	40.8	40.8	55	25.9	2	5	292	0.00	30.255 
15:20	40.6	40.6	40.6	54	25.3	2	4	248	0.00	30.255 
15:25	40.6	40.6	40.6	55	25.7	2	5	270	0.00	30.255 
15:30	40.6	40.6	40.6	54	25.3	2	5	270	0.00	30.253 
15:35	40.5	40.5	40.5	54	25.2	2	6	248	0.00	30.253 
15:40	40.3	40.3	40.3	54	25.0	2	7	315	0.00	30.253 
15:45	40.1	40.1	40.1	54	24.8	3	6	292	0.00	30.253 
15:50	40.2	40.2	40.2	54	24.9	2	6	270	0.00	30.253 
15:55	40.2	40.2	40.2	54	24.9	2	6	338	0.00	30.253 
16:00	40.3	40.3	40.3	54	25.0	2	9	292	0.00	30.253 
16:05	40.5	40.5	40.5	54	25.2	2	5	338	0.00	30.253 
16:10	40.5	40.5	40.5	54	25.2	2	6	248	0.00	30.253 
16:15	40.8	40.8	40.8	55	25.9	2	6	248	0.00	30.250 
16:20	40.9	40.9	40.9	55	26.0	2	5	270	0.00	30.250 
16:25	41.1	41.1	41.1	55	26.2	3	7	270	0.00	30.250 
16:30	40.9	40.9	40.9	55	26.0	2	5	270	0.00	30.250 
16:35	40.8	40.8	40.8	54	25.5	2	5	248	0.00	30.250 
16:40	40.8	40.8	40.8	54	25.5	2	4	225	0.00	30.250 
16:45	40.9	40.9	40.9	54	25.6	2	5	248	0.00	30.247 
16:50	41.1	41.1	41.1	54	25.7	2	4	270	0.00	30.247 
16:55	41.3	41.3	41.3	55	26.4	2	4	270	0.00	30.247 
17:00	41.2	41.2	41.2	52	24.9	3	7	270	0.00	30.247 
17:05	41.1	41.1	41.1	52	24.8	2	5	248	0.00	30.247 
17:10	40.9	40.9	40.9	52	24.6	2	4	270	0.00	30.247 
17:15	40.8	40.8	40.8	52	24.6	2	4	248	0.00	30.248 
17:20	40.6	40.6	40.6	50	23.4	2	6	315	0.00	30.248 
17:25	41.2	41.2	41.2	51	24.5	2	6	270	0.00	30.248 
17:30	42.1	42.1	42.1	48	23.8	3	6	270	0.00	30.244 
17:35	42.2	42.2	42.2	47	23.4	2	6	248	0.00	30.244 
17:40	42.1	42.1	42.1	48	23.8	1	6	315	0.00	30.244 
17:45	42.1	42.1	42.1	48	23.8	1	3	270	0.00	30.244 
17:50	41.9	41.9	41.9	46	22.6	2	5	270	0.00	30.244 
17:55	41.8	41.8	41.8	46	22.6	3	7	270	0.00	30.244 
18:00	41.3	41.3	41.3	46	22.1	3	6	270	0.00	30.246 
18:05	41.2	41.2	41.2	48	23.0	2	5	270	0.00	30.246 
18:10	41.1	41.1	41.1	49	23.4	1	4	248	0.00	30.246 
18:15	41.1	41.1	41.1	47	22.4	2	5	270	0.00	30.245 
18:20	41.1	41.1	41.1	48	22.9	1	5	292	0.00	30.245 
18:25	40.9	40.9	40.9	47	22.2	2	4	315	0.00	30.245 
18:30	40.6	40.6	40.6	47	22.0	2	6	338	0.00	30.248 
18:35	40.5	40.5	40.5	47	21.9	2	5	270	0.00	30.248 
18:40	40.3	40.3	40.3	48	22.2	1	6	270	0.00	30.248 
18:45	40.2	40.2	40.2	48	22.1	1	5	248	0.00	30.252 
18:50	40.1	40.1	40.1	48	22.0	2	5	248	0.00	30.252 
18:55	40.1	40.1	40.1	48	22.0	2	4	270	0.00	30.252 
19:00	39.9	39.9	39.9	47	21.3	1	3	292	0.00	30.253 
19:05	39.9	39.9	39.9	49	22.3	1	4	248	0.00	30.253 
19:10	40.2	40.2	40.2	48	22.1	1	3	248	0.00	30.253 
19:15	40.3	40.3	40.3	47	21.7	2	9	248	0.00	30.253 
19:20	40.3	40.3	40.3	47	21.7	1	4	248	0.00	30.253 
19:25	40.2	40.2	40.2	46	21.1	2	5	248	0.00	30.253 
19:30	40.1	40.1	40.1	46	21.0	2	3	292	0.00	30.255 
19:35	39.9	39.9	39.9	46	20.8	2	5	248	0.00	30.255 
19:40	39.8	39.8	39.8	46	20.7	2	4	270	0.00	30.255 
19:45	39.5	39.5	39.5	46	20.5	2	3	270	0.00	30.259 
19:50	39.3	39.3	39.3	46	20.3	1	4	270	0.00	30.259 
19:55	39.1	39.1	39.1	46	20.1	1	3	248	0.00	30.259 
20:00	38.8	38.8	38.8	46	19.8	1	3	248	0.00	30.263 
20:05	38.6	38.6	38.6	47	20.1	1	3	248	0.00	30.263 
20:10	38.3	38.3	38.3	48	20.4	0	2	248	0.00	30.263 
20:15	38.2	38.2	38.2	48	20.3	1	2	248	0.00	30.265 
20:20	38.0	38.0	38.0	48	20.1	1	4	248	0.00	30.265 
20:25	37.9	37.9	37.9	48	20.0	1	3	248	0.00	30.265 
20:30	37.8	37.8	37.8	49	20.4	1	4	292	0.00	30.264 
20:35	37.6	37.6	37.6	49	20.2	1	2	225	0.00	30.264 
20:40	37.5	37.5	37.5	49	20.1	0	3	225	0.00	30.264 
20:45	37.2	37.2	37.2	49	19.8	0	1	225	0.00	30.268 
20:50	37.0	37.0	37.0	50	20.1	0	1	225	0.00	30.268 
20:55	36.8	36.8	36.8	50	19.9	0	1	225	0.00	30.268 
21:00	36.5	36.5	36.5	51	20.1	0	1	225	0.00	30.270 
21:05	36.3	36.3	36.3	51	19.9	0	1	225	0.00	30.270 
21:10	36.2	36.2	36.2	52	20.3	0	3	225	0.00	30.270 
21:15	36.0	36.0	36.0	52	20.1	0	2	225	0.00	30.274 
21:20	35.9	35.9	35.9	52	20.0	0	2	225	0.00	30.274 
21:25	35.9	35.9	35.9	52	20.0	0	3	225	0.00	30.274 
21:30	35.8	35.8	35.8	52	19.9	0	2	225	0.00	30.281 
21:35	35.6	35.6	35.6	53	20.2	0	1	225	0.00	30.281 
21:40	35.5	35.5	35.5	53	20.1	0	1	225	0.00	30.281 
21:45	35.3	35.3	35.3	54	20.3	0	1	225	0.00	30.283 
21:50	35.0	35.0	35.0	54	20.1	0	1	225	0.00	30.283 
21:55	34.9	34.9	34.9	54	20.0	0	1	225	0.00	30.283 
22:00	34.7	34.7	34.7	55	20.2	0	1	225	0.00	30.285 
22:05	34.4	34.4	34.4	55	19.9	0	1	225	0.00	30.285 
22:10	34.3	34.3	34.3	55	19.8	0	1	225	0.00	30.285 
22:15	34.1	34.1	34.1	56	20.1	0	1	225	0.00	30.289 
22:20	33.8	33.8	33.8	56	19.8	0	1	225	0.00	30.289 
22:25	33.7	33.7	33.7	57	20.1	0	1	225	0.00	30.289 
22:30	33.7	33.7	33.7	57	20.1	0	1	225	0.00	30.293 
22:35	33.5	33.5	33.5	57	19.9	0	1	225	0.00	30.293 
22:40	33.5	33.5	33.5	57	19.9	0	1	225	0.00	30.293 
22:45	33.4	33.4	33.4	57	19.8	0	0	---	0.00	30.291 
22:50	33.2	33.2	33.2	58	20.0	0	1	225	0.00	30.291 
22:55	33.1	33.1	33.1	58	20.0	0	0	---	0.00	30.291 
23:00	32.9	32.9	32.9	58	19.8	0	1	225	0.00	30.290 
23:05	32.8	32.8	32.8	58	19.7	0	1	225	0.00	30.290 
23:10	32.7	32.7	32.7	58	19.6	0	1	225	0.00	30.290 
23:15	32.7	32.7	32.7	58	19.6	0	1	225	0.00	30.291 
23:20	32.7	32.7	32.7	58	19.6	0	1	225	0.00	30.291 
23:25	32.5	32.5	32.5	58	19.4	0	0	---	0.00	30.291 
23:30	32.5	32.5	32.5	58	19.4	0	1	225	0.00	30.289 
23:35	32.4	32.4	32.4	58	19.3	0	1	225	0.00	30.289 
23:40	32.4	32.4	32.4	58	19.3	0	1	225	0.00	30.289 
23:45	32.4	32.4	32.4	58	19.3	0	1	225	0.00	30.288 
23:50	32.2	32.2	32.2	58	19.1	0	0	---	0.00	30.288 
23:55	31.9	31.9	31.9	58	18.8	0	0	---	0.00	30.288 

CoCoRaHS
IN-AL-39
A2 Web Hosting
Creative Commons License
GoDaddy
search engine by freefind advanced

loaded 2018-11-15 17:46:08 • last modified 2010-11-18 10:43:29
Privacy PolicyDisclaimer
• wx.awcolley.com is powered by PmWiki v.2002016 •
• all content (unless otherwise noted) © 2018 A W Colley